Cotulla, Texas
Current Conditions -  °F | °C
As of 11:53 AM on Wednesday 28 Jan 2015 (Local Time) from KCOT Reporting Station
Clear Clear  
Wind Chill: 25°   Ceiling: Unl
Heat Index: 25°   Visibility: 9mi
Dew Point:   Wind: 0mph
Humidity: 29%   Direction: NA
Pressure: 30.18"   Gusts: NA
Location:  28.44°N, 99.24°W
Report Text: KCOT 281753Z AUTO 00000KT 9SM CLR 25/06 A3018 RMK AO2 SLP214 T02500056 10250 20094 50005
Loading
Personal Weather Stations






























Interactive Weather Map New forecast layout! Learn more

10-Day Weather Forecast

Advertisements
Track Severe Weather on mobile